sensor_id;sensor_type;location;lat;lon;timestamp;temperature;humidity
52941;DHT22;62001;53.366;6.636;2023-11-21T00:00:22;9.70;99.90
52941;DHT22;62001;53.366;6.636;2023-11-21T00:02:48;9.70;99.90
52941;DHT22;62001;53.366;6.636;2023-11-21T00:05:14;9.70;99.90
52941;DHT22;62001;53.366;6.636;2023-11-21T00:07:41;9.70;99.90
52941;DHT22;62001;53.366;6.636;2023-11-21T00:10:09;9.70;99.90
52941;DHT22;62001;53.366;6.636;2023-11-21T00:12:36;9.70;99.90
52941;DHT22;62001;53.366;6.636;2023-11-21T00:15:04;9.70;99.90
52941;DHT22;62001;53.366;6.636;2023-11-21T00:17:36;9.70;99.90
52941;DHT22;62001;53.366;6.636;2023-11-21T00:20:03;9.70;99.90
52941;DHT22;62001;53.366;6.636;2023-11-21T00:22:35;9.70;99.90
52941;DHT22;62001;53.366;6.636;2023-11-21T00:25:01;9.80;99.90
52941;DHT22;62001;53.366;6.636;2023-11-21T00:27:31;9.80;99.90
52941;DHT22;62001;53.366;6.636;2023-11-21T00:29:58;9.80;99.90
52941;DHT22;62001;53.366;6.636;2023-11-21T00:32:23;9.80;99.90
52941;DHT22;62001;53.366;6.636;2023-11-21T00:34:49;9.80;99.90
52941;DHT22;62001;53.366;6.636;2023-11-21T00:37:15;9.80;99.90
52941;DHT22;62001;53.366;6.636;2023-11-21T00:39:41;9.80;99.90
52941;DHT22;62001;53.366;6.636;2023-11-21T00:42:07;9.80;99.90
52941;DHT22;62001;53.366;6.636;2023-11-21T00:44:34;9.80;99.90
52941;DHT22;62001;53.366;6.636;2023-11-21T00:47:00;9.80;99.90
52941;DHT22;62001;53.366;6.636;2023-11-21T00:49:25;9.80;99.90
52941;DHT22;62001;53.366;6.636;2023-11-21T00:51:51;9.80;99.90
52941;DHT22;62001;53.366;6.636;2023-11-21T00:54:17;9.80;99.90
52941;DHT22;62001;53.366;6.636;2023-11-21T00:56:43;9.80;99.90
52941;DHT22;62001;53.366;6.636;2023-11-21T00:59:09;9.80;99.90
52941;DHT22;62001;53.366;6.636;2023-11-21T01:01:36;9.80;99.90
52941;DHT22;62001;53.366;6.636;2023-11-21T01:04:03;9.80;99.90
52941;DHT22;62001;53.366;6.636;2023-11-21T01:06:29;9.80;99.90
52941;DHT22;62001;53.366;6.636;2023-11-21T01:08:55;9.80;99.90
52941;DHT22;62001;53.366;6.636;2023-11-21T01:11:21;9.80;99.90
52941;DHT22;62001;53.366;6.636;2023-11-21T01:13:47;9.90;99.90
52941;DHT22;62001;53.366;6.636;2023-11-21T01:16:13;9.90;99.90
52941;DHT22;62001;53.366;6.636;2023-11-21T01:18:39;9.90;99.90
52941;DHT22;62001;53.366;6.636;2023-11-21T01:21:05;9.90;99.90
52941;DHT22;62001;53.366;6.636;2023-11-21T01:23:31;9.90;99.90
52941;DHT22;62001;53.366;6.636;2023-11-21T01:25:57;9.90;99.90
52941;DHT22;62001;53.366;6.636;2023-11-21T01:28:23;9.90;99.90
52941;DHT22;62001;53.366;6.636;2023-11-21T01:30:49;9.90;99.90
52941;DHT22;62001;53.366;6.636;2023-11-21T01:33:15;9.90;99.90
52941;DHT22;62001;53.366;6.636;2023-11-21T01:35:42;9.80;99.90
52941;DHT22;62001;53.366;6.636;2023-11-21T01:38:08;9.80;99.90
52941;DHT22;62001;53.366;6.636;2023-11-21T01:40:34;9.80;99.90
52941;DHT22;62001;53.366;6.636;2023-11-21T01:43:00;9.80;99.90
52941;DHT22;62001;53.366;6.636;2023-11-21T01:45:29;9.80;99.90
52941;DHT22;62001;53.366;6.636;2023-11-21T01:47:59;9.80;99.90
52941;DHT22;62001;53.366;6.636;2023-11-21T01:50:26;9.80;99.90
52941;DHT22;62001;53.366;6.636;2023-11-21T01:52:52;9.80;99.90
52941;DHT22;62001;53.366;6.636;2023-11-21T01:55:18;9.80;99.90
52941;DHT22;62001;53.366;6.636;2023-11-21T01:57:45;9.80;99.90
52941;DHT22;62001;53.366;6.636;2023-11-21T02:00:12;9.80;99.90
52941;DHT22;62001;53.366;6.636;2023-11-21T02:02:47;9.70;99.90
52941;DHT22;62001;53.366;6.636;2023-11-21T02:05:16;9.80;99.90
52941;DHT22;62001;53.366;6.636;2023-11-21T02:07:44;9.80;99.90
52941;DHT22;62001;53.366;6.636;2023-11-21T02:10:10;9.70;99.90
52941;DHT22;62001;53.366;6.636;2023-11-21T02:12:40;9.70;99.90
52941;DHT22;62001;53.366;6.636;2023-11-21T02:15:09;9.70;99.90
52941;DHT22;62001;53.366;6.636;2023-11-21T02:17:43;9.60;99.90
52941;DHT22;62001;53.366;6.636;2023-11-21T02:20:11;9.60;99.90
52941;DHT22;62001;53.366;6.636;2023-11-21T02:22:41;9.60;99.90
52941;DHT22;62001;53.366;6.636;2023-11-21T02:25:08;9.60;99.90
52941;DHT22;62001;53.366;6.636;2023-11-21T02:27:34;9.50;99.90
52941;DHT22;62001;53.366;6.636;2023-11-21T02:29:59;9.50;99.90
52941;DHT22;62001;53.366;6.636;2023-11-21T02:32:26;9.50;99.90
52941;DHT22;62001;53.366;6.636;2023-11-21T02:34:52;9.50;99.90
52941;DHT22;62001;53.366;6.636;2023-11-21T02:37:20;9.50;99.90
52941;DHT22;62001;53.366;6.636;2023-11-21T02:39:46;9.50;99.90
52941;DHT22;62001;53.366;6.636;2023-11-21T02:42:12;9.50;99.90
52941;DHT22;62001;53.366;6.636;2023-11-21T02:44:37;9.50;99.90
52941;DHT22;62001;53.366;6.636;2023-11-21T02:47:04;9.50;99.90
52941;DHT22;62001;53.366;6.636;2023-11-21T02:49:29;9.50;99.90
52941;DHT22;62001;53.366;6.636;2023-11-21T02:51:56;9.50;99.90
52941;DHT22;62001;53.366;6.636;2023-11-21T02:54:22;9.50;99.90
52941;DHT22;62001;53.366;6.636;2023-11-21T02:56:48;9.50;99.90
52941;DHT22;62001;53.366;6.636;2023-11-21T02:59:15;9.50;99.90
52941;DHT22;62001;53.366;6.636;2023-11-21T03:01:41;9.50;99.90
52941;DHT22;62001;53.366;6.636;2023-11-21T03:04:07;9.50;99.90
52941;DHT22;62001;53.366;6.636;2023-11-21T03:06:33;9.50;99.90
52941;DHT22;62001;53.366;6.636;2023-11-21T03:08:59;9.50;99.90
52941;DHT22;62001;53.366;6.636;2023-11-21T03:11:25;9.50;99.90
52941;DHT22;62001;53.366;6.636;2023-11-21T03:13:51;9.50;99.90
52941;DHT22;62001;53.366;6.636;2023-11-21T03:16:18;9.50;99.90
52941;DHT22;62001;53.366;6.636;2023-11-21T03:18:44;9.40;99.90
52941;DHT22;62001;53.366;6.636;2023-11-21T03:21:11;9.40;99.90
52941;DHT22;62001;53.366;6.636;2023-11-21T03:23:37;9.40;99.90
52941;DHT22;62001;53.366;6.636;2023-11-21T03:26:03;9.40;99.90
52941;DHT22;62001;53.366;6.636;2023-11-21T03:28:29;9.50;99.90
52941;DHT22;62001;53.366;6.636;2023-11-21T03:30:58;9.40;99.90
52941;DHT22;62001;53.366;6.636;2023-11-21T03:33:25;9.40;99.90
52941;DHT22;62001;53.366;6.636;2023-11-21T03:35:51;9.40;99.90
52941;DHT22;62001;53.366;6.636;2023-11-21T03:38:18;9.40;99.90
52941;DHT22;62001;53.366;6.636;2023-11-21T03:40:45;9.50;99.90
52941;DHT22;62001;53.366;6.636;2023-11-21T03:43:10;9.50;99.90
52941;DHT22;62001;53.366;6.636;2023-11-21T03:45:36;9.50;99.90
52941;DHT22;62001;53.366;6.636;2023-11-21T03:48:02;9.50;99.90
52941;DHT22;62001;53.366;6.636;2023-11-21T03:50:29;9.50;99.90
52941;DHT22;62001;53.366;6.636;2023-11-21T03:52:55;9.50;99.90
52941;DHT22;62001;53.366;6.636;2023-11-21T03:55:23;9.50;99.90
52941;DHT22;62001;53.366;6.636;2023-11-21T03:57:51;9.50;99.90
52941;DHT22;62001;53.366;6.636;2023-11-21T04:00:17;9.50;99.90
52941;DHT22;62001;53.366;6.636;2023-11-21T04:02:43;9.50;99.90
52941;DHT22;62001;53.366;6.636;2023-11-21T04:05:09;9.50;99.90
52941;DHT22;62001;53.366;6.636;2023-11-21T04:07:35;9.40;99.90
52941;DHT22;62001;53.366;6.636;2023-11-21T04:10:02;9.50;99.90
52941;DHT22;62001;53.366;6.636;2023-11-21T04:12:28;9.40;99.90
52941;DHT22;62001;53.366;6.636;2023-11-21T04:14:55;9.40;99.90
52941;DHT22;62001;53.366;6.636;2023-11-21T04:17:20;9.50;99.90
52941;DHT22;62001;53.366;6.636;2023-11-21T04:19:46;9.40;99.90
52941;DHT22;62001;53.366;6.636;2023-11-21T04:22:12;9.40;99.90
52941;DHT22;62001;53.366;6.636;2023-11-21T04:24:38;9.40;99.90
52941;DHT22;62001;53.366;6.636;2023-11-21T04:27:04;9.40;99.90
52941;DHT22;62001;53.366;6.636;2023-11-21T04:29:30;9.40;99.90
52941;DHT22;62001;53.366;6.636;2023-11-21T04:31:56;9.50;99.90
52941;DHT22;62001;53.366;6.636;2023-11-21T04:34:22;9.40;99.90
52941;DHT22;62001;53.366;6.636;2023-11-21T04:36:47;9.40;99.90
52941;DHT22;62001;53.366;6.636;2023-11-21T04:39:13;9.40;99.90
52941;DHT22;62001;53.366;6.636;2023-11-21T04:41:39;9.40;99.90
52941;DHT22;62001;53.366;6.636;2023-11-21T04:44:06;9.50;99.90
52941;DHT22;62001;53.366;6.636;2023-11-21T04:46:32;9.50;99.90
52941;DHT22;62001;53.366;6.636;2023-11-21T04:48:58;9.50;99.90
52941;DHT22;62001;53.366;6.636;2023-11-21T04:51:24;9.50;99.90
52941;DHT22;62001;53.366;6.636;2023-11-21T04:53:50;9.50;99.90
52941;DHT22;62001;53.366;6.636;2023-11-21T04:56:16;9.50;99.90
52941;DHT22;62001;53.366;6.636;2023-11-21T04:58:42;9.50;99.90
52941;DHT22;62001;53.366;6.636;2023-11-21T05:01:08;9.50;99.90
52941;DHT22;62001;53.366;6.636;2023-11-21T05:03:34;9.50;99.90
52941;DHT22;62001;53.366;6.636;2023-11-21T05:06:00;9.50;99.90
52941;DHT22;62001;53.366;6.636;2023-11-21T05:08:26;9.50;99.90
52941;DHT22;62001;53.366;6.636;2023-11-21T05:10:52;9.50;99.90
52941;DHT22;62001;53.366;6.636;2023-11-21T05:13:19;9.40;99.90
52941;DHT22;62001;53.366;6.636;2023-11-21T05:15:55;9.40;99.90
52941;DHT22;62001;53.366;6.636;2023-11-21T05:18:24;9.40;99.90
52941;DHT22;62001;53.366;6.636;2023-11-21T05:20:52;9.40;99.90
52941;DHT22;62001;53.366;6.636;2023-11-21T05:23:19;9.30;99.90
52941;DHT22;62001;53.366;6.636;2023-11-21T05:25:45;9.30;99.90
52941;DHT22;62001;53.366;6.636;2023-11-21T05:28:12;9.30;99.90
52941;DHT22;62001;53.366;6.636;2023-11-21T05:30:38;9.30;99.90
52941;DHT22;62001;53.366;6.636;2023-11-21T05:33:05;9.30;99.90
52941;DHT22;62001;53.366;6.636;2023-11-21T05:35:31;9.30;99.90
52941;DHT22;62001;53.366;6.636;2023-11-21T05:37:57;9.30;99.90
52941;DHT22;62001;53.366;6.636;2023-11-21T05:40:23;9.20;99.90
52941;DHT22;62001;53.366;6.636;2023-11-21T05:42:48;9.20;99.90
52941;DHT22;62001;53.366;6.636;2023-11-21T05:45:14;9.20;99.90
52941;DHT22;62001;53.366;6.636;2023-11-21T05:47:44;9.20;99.90
52941;DHT22;62001;53.366;6.636;2023-11-21T05:50:13;9.20;99.90
52941;DHT22;62001;53.366;6.636;2023-11-21T05:52:43;9.20;99.90
52941;DHT22;62001;53.366;6.636;2023-11-21T05:55:09;9.20;99.90
52941;DHT22;62001;53.366;6.636;2023-11-21T05:57:39;9.10;99.90
52941;DHT22;62001;53.366;6.636;2023-11-21T06:00:06;9.10;99.90
52941;DHT22;62001;53.366;6.636;2023-11-21T06:02:37;9.10;99.90
52941;DHT22;62001;53.366;6.636;2023-11-21T06:05:04;9.10;99.90
52941;DHT22;62001;53.366;6.636;2023-11-21T06:07:30;9.10;99.90
52941;DHT22;62001;53.366;6.636;2023-11-21T06:09:55;9.10;99.90
52941;DHT22;62001;53.366;6.636;2023-11-21T06:12:21;9.10;99.90
52941;DHT22;62001;53.366;6.636;2023-11-21T06:14:47;9.10;99.90
52941;DHT22;62001;53.366;6.636;2023-11-21T06:17:13;9.00;99.90
52941;DHT22;62001;53.366;6.636;2023-11-21T06:19:39;9.00;99.90
52941;DHT22;62001;53.366;6.636;2023-11-21T06:22:05;8.90;99.90
52941;DHT22;62001;53.366;6.636;2023-11-21T06:24:31;8.90;99.90
52941;DHT22;62001;53.366;6.636;2023-11-21T06:26:57;8.80;99.90
52941;DHT22;62001;53.366;6.636;2023-11-21T06:29:23;8.80;99.90
52941;DHT22;62001;53.366;6.636;2023-11-21T06:31:49;8.80;99.90
52941;DHT22;62001;53.366;6.636;2023-11-21T06:34:15;8.80;99.90
52941;DHT22;62001;53.366;6.636;2023-11-21T06:36:41;8.80;99.90
52941;DHT22;62001;53.366;6.636;2023-11-21T06:39:06;8.80;99.90
52941;DHT22;62001;53.366;6.636;2023-11-21T06:41:34;8.80;99.90
52941;DHT22;62001;53.366;6.636;2023-11-21T06:43:59;8.70;99.90
52941;DHT22;62001;53.366;6.636;2023-11-21T06:46:25;8.70;99.90
52941;DHT22;62001;53.366;6.636;2023-11-21T06:48:51;8.70;99.90
52941;DHT22;62001;53.366;6.636;2023-11-21T06:51:17;8.70;99.90
52941;DHT22;62001;53.366;6.636;2023-11-21T06:53:43;8.70;99.90
52941;DHT22;62001;53.366;6.636;2023-11-21T06:56:17;8.70;99.90
52941;DHT22;62001;53.366;6.636;2023-11-21T06:58:46;8.70;99.90
52941;DHT22;62001;53.366;6.636;2023-11-21T07:01:13;8.70;99.90
52941;DHT22;62001;53.366;6.636;2023-11-21T07:03:39;8.70;99.90
52941;DHT22;62001;53.366;6.636;2023-11-21T07:06:06;8.60;99.90
52941;DHT22;62001;53.366;6.636;2023-11-21T07:08:33;8.60;99.90
52941;DHT22;62001;53.366;6.636;2023-11-21T07:10:59;8.60;99.90
52941;DHT22;62001;53.366;6.636;2023-11-21T07:13:24;8.50;99.90
52941;DHT22;62001;53.366;6.636;2023-11-21T07:15:51;8.50;99.90
52941;DHT22;62001;53.366;6.636;2023-11-21T07:18:17;8.50;99.90
52941;DHT22;62001;53.366;6.636;2023-11-21T07:20:43;8.50;99.90
52941;DHT22;62001;53.366;6.636;2023-11-21T07:23:09;8.50;99.90
52941;DHT22;62001;53.366;6.636;2023-11-21T07:25:36;8.50;99.90
52941;DHT22;62001;53.366;6.636;2023-11-21T07:28:02;8.50;99.90
52941;DHT22;62001;53.366;6.636;2023-11-21T07:30:28;8.50;99.90
52941;DHT22;62001;53.366;6.636;2023-11-21T07:32:54;8.50;99.90
52941;DHT22;62001;53.366;6.636;2023-11-21T07:35:20;8.50;99.90
52941;DHT22;62001;53.366;6.636;2023-11-21T07:37:46;8.50;99.90
52941;DHT22;62001;53.366;6.636;2023-11-21T07:40:14;8.60;99.90
52941;DHT22;62001;53.366;6.636;2023-11-21T07:42:40;8.50;99.90
52941;DHT22;62001;53.366;6.636;2023-11-21T07:45:08;8.50;99.90
52941;DHT22;62001;53.366;6.636;2023-11-21T07:47:34;8.50;99.90
52941;DHT22;62001;53.366;6.636;2023-11-21T07:50:03;8.60;99.90
52941;DHT22;62001;53.366;6.636;2023-11-21T07:52:29;8.50;99.90
52941;DHT22;62001;53.366;6.636;2023-11-21T07:54:55;8.50;99.90
52941;DHT22;62001;53.366;6.636;2023-11-21T07:57:21;8.60;99.90
52941;DHT22;62001;53.366;6.636;2023-11-21T07:59:47;8.60;99.90
52941;DHT22;62001;53.366;6.636;2023-11-21T08:02:13;8.60;99.90
52941;DHT22;62001;53.366;6.636;2023-11-21T08:04:40;8.70;99.90
52941;DHT22;62001;53.366;6.636;2023-11-21T08:07:05;8.70;99.90
52941;DHT22;62001;53.366;6.636;2023-11-21T08:09:31;8.70;99.90
52941;DHT22;62001;53.366;6.636;2023-11-21T08:11:58;8.70;99.90
52941;DHT22;62001;53.366;6.636;2023-11-21T08:14:26;8.70;99.90
52941;DHT22;62001;53.366;6.636;2023-11-21T08:16:51;8.70;99.90
52941;DHT22;62001;53.366;6.636;2023-11-21T08:19:18;8.70;99.90
52941;DHT22;62001;53.366;6.636;2023-11-21T08:21:44;8.60;99.90
52941;DHT22;62001;53.366;6.636;2023-11-21T08:24:11;8.60;99.90
52941;DHT22;62001;53.366;6.636;2023-11-21T08:26:37;8.60;99.90
52941;DHT22;62001;53.366;6.636;2023-11-21T08:29:03;8.60;99.90
52941;DHT22;62001;53.366;6.636;2023-11-21T08:31:29;8.50;99.90
52941;DHT22;62001;53.366;6.636;2023-11-21T08:33:55;8.50;99.90
52941;DHT22;62001;53.366;6.636;2023-11-21T08:36:24;8.50;99.90
52941;DHT22;62001;53.366;6.636;2023-11-21T08:38:50;8.50;99.90
52941;DHT22;62001;53.366;6.636;2023-11-21T08:41:17;8.50;99.90
52941;DHT22;62001;53.366;6.636;2023-11-21T08:43:49;8.50;99.90
52941;DHT22;62001;53.366;6.636;2023-11-21T08:46:15;8.50;99.90
52941;DHT22;62001;53.366;6.636;2023-11-21T08:48:43;8.50;99.90
52941;DHT22;62001;53.366;6.636;2023-11-21T08:51:10;8.50;99.90
52941;DHT22;62001;53.366;6.636;2023-11-21T08:53:42;8.50;99.90
52941;DHT22;62001;53.366;6.636;2023-11-21T08:56:14;8.50;99.90
52941;DHT22;62001;53.366;6.636;2023-11-21T08:58:40;8.50;99.90
52941;DHT22;62001;53.366;6.636;2023-11-21T09:01:07;8.50;99.90
52941;DHT22;62001;53.366;6.636;2023-11-21T09:03:33;8.50;99.90
52941;DHT22;62001;53.366;6.636;2023-11-21T09:05:59;8.40;99.90
52941;DHT22;62001;53.366;6.636;2023-11-21T09:08:25;8.40;99.90
52941;DHT22;62001;53.366;6.636;2023-11-21T09:10:53;8.40;99.90
52941;DHT22;62001;53.366;6.636;2023-11-21T09:13:19;8.40;99.90
52941;DHT22;62001;53.366;6.636;2023-11-21T09:15:45;8.40;99.90
52941;DHT22;62001;53.366;6.636;2023-11-21T09:18:14;8.40;99.90
52941;DHT22;62001;53.366;6.636;2023-11-21T09:20:43;8.50;99.90
52941;DHT22;62001;53.366;6.636;2023-11-21T09:23:12;8.50;99.90
52941;DHT22;62001;53.366;6.636;2023-11-21T09:25:37;8.50;99.90
52941;DHT22;62001;53.366;6.636;2023-11-21T09:28:06;8.50;99.90
52941;DHT22;62001;53.366;6.636;2023-11-21T09:30:35;8.60;99.90
52941;DHT22;62001;53.366;6.636;2023-11-21T09:33:02;8.60;99.90
52941;DHT22;62001;53.366;6.636;2023-11-21T09:35:28;8.60;99.90
52941;DHT22;62001;53.366;6.636;2023-11-21T09:37:54;8.70;99.90
52941;DHT22;62001;53.366;6.636;2023-11-21T09:40:22;8.80;99.90
52941;DHT22;62001;53.366;6.636;2023-11-21T09:42:57;8.80;99.90
52941;DHT22;62001;53.366;6.636;2023-11-21T09:45:34;8.80;99.90
52941;DHT22;62001;53.366;6.636;2023-11-21T09:48:01;8.80;99.90
52941;DHT22;62001;53.366;6.636;2023-11-21T09:50:27;8.90;99.90
52941;DHT22;62001;53.366;6.636;2023-11-21T09:55:34;9.00;99.90
52941;DHT22;62001;53.366;6.636;2023-11-21T09:58:04;8.90;99.90
52941;DHT22;62001;53.366;6.636;2023-11-21T10:00:33;9.00;99.90
52941;DHT22;62001;53.366;6.636;2023-11-21T10:02:59;9.10;99.90
52941;DHT22;62001;53.366;6.636;2023-11-21T10:05:26;9.20;99.90
52941;DHT22;62001;53.366;6.636;2023-11-21T10:07:52;9.30;99.90
52941;DHT22;62001;53.366;6.636;2023-11-21T10:10:19;9.30;99.90
52941;DHT22;62001;53.366;6.636;2023-11-21T10:12:50;9.20;99.90
52941;DHT22;62001;53.366;6.636;2023-11-21T10:15:21;9.20;99.90
52941;DHT22;62001;53.366;6.636;2023-11-21T10:17:49;9.30;99.90
52941;DHT22;62001;53.366;6.636;2023-11-21T10:20:16;9.30;99.90
52941;DHT22;62001;53.366;6.636;2023-11-21T10:22:42;9.30;99.90
52941;DHT22;62001;53.366;6.636;2023-11-21T10:25:09;9.50;99.90
52941;DHT22;62001;53.366;6.636;2023-11-21T10:27:36;9.50;99.90
52941;DHT22;62001;53.366;6.636;2023-11-21T10:30:05;9.50;99.90
52941;DHT22;62001;53.366;6.636;2023-11-21T10:32:31;9.40;99.90
52941;DHT22;62001;53.366;6.636;2023-11-21T10:34:59;9.30;99.90
52941;DHT22;62001;53.366;6.636;2023-11-21T10:37:34;9.30;99.90
52941;DHT22;62001;53.366;6.636;2023-11-21T10:40:00;9.30;99.90
52941;DHT22;62001;53.366;6.636;2023-11-21T10:42:26;9.30;99.90
52941;DHT22;62001;53.366;6.636;2023-11-21T10:44:53;9.30;99.90
52941;DHT22;62001;53.366;6.636;2023-11-21T10:47:19;9.20;99.90
52941;DHT22;62001;53.366;6.636;2023-11-21T10:49:48;9.30;99.90
52941;DHT22;62001;53.366;6.636;2023-11-21T10:52:14;9.30;99.90
52941;DHT22;62001;53.366;6.636;2023-11-21T10:54:43;9.30;99.90
52941;DHT22;62001;53.366;6.636;2023-11-21T10:57:10;9.30;99.90
52941;DHT22;62001;53.366;6.636;2023-11-21T10:59:41;9.30;99.90
52941;DHT22;62001;53.366;6.636;2023-11-21T11:04:48;9.20;99.90
52941;DHT22;62001;53.366;6.636;2023-11-21T11:07:15;9.20;99.90
52941;DHT22;62001;53.366;6.636;2023-11-21T11:09:43;9.20;99.90
52941;DHT22;62001;53.366;6.636;2023-11-21T11:12:11;9.10;99.90
52941;DHT22;62001;53.366;6.636;2023-11-21T11:14:41;9.10;99.90
52941;DHT22;62001;53.366;6.636;2023-11-21T11:17:07;9.10;99.90
52941;DHT22;62001;53.366;6.636;2023-11-21T11:19:35;9.00;99.90
52941;DHT22;62001;53.366;6.636;2023-11-21T11:22:41;9.00;99.90
52941;DHT22;62001;53.366;6.636;2023-11-21T11:28:14;9.10;99.90
52941;DHT22;62001;53.366;6.636;2023-11-21T11:33:50;9.20;99.90
52941;DHT22;62001;53.366;6.636;2023-11-21T11:36:40;9.30;99.90
52941;DHT22;62001;53.366;6.636;2023-11-21T11:39:37;9.40;99.90
52941;DHT22;62001;53.366;6.636;2023-11-21T11:42:13;9.40;99.90
52941;DHT22;62001;53.366;6.636;2023-11-21T11:47:37;9.40;99.90
52941;DHT22;62001;53.366;6.636;2023-11-21T11:50:09;9.40;99.90
52941;DHT22;62001;53.366;6.636;2023-11-21T11:52:49;9.60;99.90
52941;DHT22;62001;53.366;6.636;2023-11-21T11:55:17;9.70;99.90
52941;DHT22;62001;53.366;6.636;2023-11-21T11:57:46;9.80;99.90
52941;DHT22;62001;53.366;6.636;2023-11-21T12:02:56;9.90;99.90
52941;DHT22;62001;53.366;6.636;2023-11-21T12:05:28;9.90;99.90
52941;DHT22;62001;53.366;6.636;2023-11-21T12:07:55;10.00;99.90
52941;DHT22;62001;53.366;6.636;2023-11-21T12:10:27;10.00;99.90
52941;DHT22;62001;53.366;6.636;2023-11-21T12:13:07;10.10;99.90
52941;DHT22;62001;53.366;6.636;2023-11-21T12:15:34;10.00;99.90
52941;DHT22;62001;53.366;6.636;2023-11-21T12:18:00;9.90;99.90
52941;DHT22;62001;53.366;6.636;2023-11-21T12:20:27;9.70;99.90
52941;DHT22;62001;53.366;6.636;2023-11-21T12:22:57;9.60;99.90
52941;DHT22;62001;53.366;6.636;2023-11-21T12:25:27;9.40;99.90
52941;DHT22;62001;53.366;6.636;2023-11-21T12:28:00;9.30;99.90
52941;DHT22;62001;53.366;6.636;2023-11-21T12:30:31;9.20;99.90
52941;DHT22;62001;53.366;6.636;2023-11-21T12:32:59;9.10;99.90
52941;DHT22;62001;53.366;6.636;2023-11-21T12:35:27;9.10;99.90
52941;DHT22;62001;53.366;6.636;2023-11-21T12:37:55;9.10;99.90
52941;DHT22;62001;53.366;6.636;2023-11-21T12:40:23;9.10;99.90
52941;DHT22;62001;53.366;6.636;2023-11-21T12:42:51;9.10;99.90
52941;DHT22;62001;53.366;6.636;2023-11-21T12:45:22;9.20;99.90
52941;DHT22;62001;53.366;6.636;2023-11-21T12:47:54;9.20;99.90
52941;DHT22;62001;53.366;6.636;2023-11-21T12:50:24;9.20;99.90
52941;DHT22;62001;53.366;6.636;2023-11-21T12:52:58;9.20;99.90
52941;DHT22;62001;53.366;6.636;2023-11-21T12:55:24;9.20;99.90
52941;DHT22;62001;53.366;6.636;2023-11-21T12:57:55;9.20;99.90
52941;DHT22;62001;53.366;6.636;2023-11-21T13:00:28;9.10;99.90
52941;DHT22;62001;53.366;6.636;2023-11-21T13:02:56;9.00;99.90
52941;DHT22;62001;53.366;6.636;2023-11-21T13:05:29;9.00;99.90
52941;DHT22;62001;53.366;6.636;2023-11-21T13:07:58;9.00;99.90
52941;DHT22;62001;53.366;6.636;2023-11-21T13:10:28;8.90;99.90
52941;DHT22;62001;53.366;6.636;2023-11-21T13:13:05;8.90;99.90
52941;DHT22;62001;53.366;6.636;2023-11-21T13:15:34;8.90;99.90
52941;DHT22;62001;53.366;6.636;2023-11-21T13:18:02;8.90;99.90
52941;DHT22;62001;53.366;6.636;2023-11-21T13:20:29;8.80;99.90
52941;DHT22;62001;53.366;6.636;2023-11-21T13:22:57;8.80;99.90
52941;DHT22;62001;53.366;6.636;2023-11-21T13:25:28;8.80;99.90
52941;DHT22;62001;53.366;6.636;2023-11-21T13:27:55;8.80;99.90
52941;DHT22;62001;53.366;6.636;2023-11-21T13:30:21;8.90;99.90
52941;DHT22;62001;53.366;6.636;2023-11-21T13:32:56;8.90;99.90
52941;DHT22;62001;53.366;6.636;2023-11-21T13:35:34;8.90;99.90
52941;DHT22;62001;53.366;6.636;2023-11-21T13:38:14;8.90;99.90
52941;DHT22;62001;53.366;6.636;2023-11-21T13:40:48;8.80;99.90
52941;DHT22;62001;53.366;6.636;2023-11-21T13:43:18;8.80;99.90
52941;DHT22;62001;53.366;6.636;2023-11-21T13:45:48;8.80;99.90
52941;DHT22;62001;53.366;6.636;2023-11-21T13:48:15;8.80;99.90
52941;DHT22;62001;53.366;6.636;2023-11-21T13:50:45;8.80;99.90
52941;DHT22;62001;53.366;6.636;2023-11-21T13:53:24;8.70;99.90
52941;DHT22;62001;53.366;6.636;2023-11-21T13:55:54;8.70;99.90
52941;DHT22;62001;53.366;6.636;2023-11-21T13:58:21;8.60;99.90
52941;DHT22;62001;53.366;6.636;2023-11-21T14:01:05;8.60;99.90
52941;DHT22;62001;53.366;6.636;2023-11-21T14:03:32;8.50;99.90
52941;DHT22;62001;53.366;6.636;2023-11-21T14:06:05;8.50;99.90
52941;DHT22;62001;53.366;6.636;2023-11-21T14:08:40;8.50;99.90
52941;DHT22;62001;53.366;6.636;2023-11-21T14:11:07;8.40;99.90
52941;DHT22;62001;53.366;6.636;2023-11-21T14:13:33;8.40;99.90
52941;DHT22;62001;53.366;6.636;2023-11-21T14:15:59;8.40;99.90
52941;DHT22;62001;53.366;6.636;2023-11-21T14:18:27;8.40;99.90
52941;DHT22;62001;53.366;6.636;2023-11-21T14:20:56;8.30;99.90
52941;DHT22;62001;53.366;6.636;2023-11-21T14:23:22;8.30;99.90
52941;DHT22;62001;53.366;6.636;2023-11-21T14:25:49;8.40;99.90
52941;DHT22;62001;53.366;6.636;2023-11-21T14:28:18;8.40;99.90
52941;DHT22;62001;53.366;6.636;2023-11-21T14:30:46;8.40;99.90
52941;DHT22;62001;53.366;6.636;2023-11-21T14:33:12;8.40;99.90
52941;DHT22;62001;53.366;6.636;2023-11-21T14:35:38;8.30;99.90
52941;DHT22;62001;53.366;6.636;2023-11-21T14:38:04;8.30;99.90
52941;DHT22;62001;53.366;6.636;2023-11-21T14:40:31;8.20;99.90
52941;DHT22;62001;53.366;6.636;2023-11-21T14:43:00;8.20;99.90
52941;DHT22;62001;53.366;6.636;2023-11-21T14:45:26;8.20;99.90
52941;DHT22;62001;53.366;6.636;2023-11-21T14:47:52;8.20;99.90
52941;DHT22;62001;53.366;6.636;2023-11-21T14:50:32;8.10;99.90
52941;DHT22;62001;53.366;6.636;2023-11-21T14:53:14;8.10;99.90
52941;DHT22;62001;53.366;6.636;2023-11-21T14:55:40;8.00;99.90
52941;DHT22;62001;53.366;6.636;2023-11-21T14:58:15;8.00;99.90
52941;DHT22;62001;53.366;6.636;2023-11-21T15:00:45;8.00;99.90
52941;DHT22;62001;53.366;6.636;2023-11-21T15:03:12;8.00;99.90
52941;DHT22;62001;53.366;6.636;2023-11-21T15:06:02;7.90;99.90
52941;DHT22;62001;53.366;6.636;2023-11-21T15:08:58;7.90;99.90
52941;DHT22;62001;53.366;6.636;2023-11-21T15:11:34;7.90;99.90
52941;DHT22;62001;53.366;6.636;2023-11-21T15:13:59;7.90;99.90
52941;DHT22;62001;53.366;6.636;2023-11-21T15:16:28;7.90;99.90
52941;DHT22;62001;53.366;6.636;2023-11-21T15:18:57;7.90;99.90
52941;DHT22;62001;53.366;6.636;2023-11-21T15:21:23;7.80;99.90
52941;DHT22;62001;53.366;6.636;2023-11-21T15:23:50;7.80;99.90
52941;DHT22;62001;53.366;6.636;2023-11-21T15:26:17;7.70;99.90
52941;DHT22;62001;53.366;6.636;2023-11-21T15:28:42;7.70;99.90
52941;DHT22;62001;53.366;6.636;2023-11-21T15:31:08;7.60;99.90
52941;DHT22;62001;53.366;6.636;2023-11-21T15:33:35;7.50;99.90
52941;DHT22;62001;53.366;6.636;2023-11-21T15:36:04;7.40;99.90
52941;DHT22;62001;53.366;6.636;2023-11-21T15:38:30;7.30;99.90
52941;DHT22;62001;53.366;6.636;2023-11-21T15:40:56;7.30;99.90
52941;DHT22;62001;53.366;6.636;2023-11-21T15:43:24;7.20;99.90
52941;DHT22;62001;53.366;6.636;2023-11-21T15:45:50;7.10;99.90
52941;DHT22;62001;53.366;6.636;2023-11-21T15:48:16;7.00;99.90
52941;DHT22;62001;53.366;6.636;2023-11-21T15:50:42;6.90;99.90
52941;DHT22;62001;53.366;6.636;2023-11-21T15:53:08;6.90;99.90
52941;DHT22;62001;53.366;6.636;2023-11-21T15:55:34;6.80;99.90
52941;DHT22;62001;53.366;6.636;2023-11-21T15:58:07;6.70;99.90
52941;DHT22;62001;53.366;6.636;2023-11-21T16:00:33;6.70;99.90
52941;DHT22;62001;53.366;6.636;2023-11-21T16:02:58;6.70;99.90
52941;DHT22;62001;53.366;6.636;2023-11-21T16:05:34;6.60;99.90